Copper Center, Alaska
Current Conditions -  °F | °C
As of 4:53 PM on Monday 20 Oct 2014 (Local Time) from PAGK Reporting Station
Overcast Overcast  
Wind Chill: 22°   Ceiling: 600
Heat Index: 22°   Visibility: 10mi
Dew Point: 19°   Wind: 3mph
Humidity: 89%   Direction: NA
Pressure: 29.16"   Gusts: NA
Location:  61.95°N, 145.31°W
Report Text: PAGK 210053Z AUTO VRB03KT 10SM OVC006 M06/M07 A2916 RMK AO2 SLP910 T10561072 TSNO
Loading
Personal Weather Stations






























Interactive Weather Map
Tropical Storm Tracking
New forecast layout! Learn more

10-Day Weather Forecast

Advertisements
Track Severe Weather on mobile